createdAt,value
2018-09-15T00:01:38.137Z,10.90
2018-09-15T00:04:08.377Z,10.90
2018-09-15T00:06:38.467Z,11.00
2018-09-15T00:09:10.675Z,10.90
2018-09-15T00:11:40.784Z,11.00
2018-09-15T00:14:11.112Z,11.10
2018-09-15T00:16:41.305Z,11.10
2018-09-15T00:19:11.601Z,11.20
2018-09-15T00:21:41.993Z,11.20
2018-09-15T00:24:11.995Z,11.30
2018-09-15T00:26:42.164Z,11.20
2018-09-15T00:29:12.158Z,11.20
2018-09-15T00:31:42.212Z,11.30
2018-09-15T00:34:12.285Z,11.30
2018-09-15T00:36:42.406Z,11.30
2018-09-15T00:39:13.201Z,11.30
2018-09-15T00:41:43.351Z,11.30
2018-09-15T00:44:13.396Z,11.40
2018-09-15T00:46:43.482Z,11.40
2018-09-15T00:49:13.555Z,11.40
2018-09-15T00:51:43.656Z,11.50
2018-09-15T00:54:13.693Z,11.50
2018-09-15T00:56:43.790Z,11.50
2018-09-15T00:59:13.872Z,11.60
2018-09-15T01:01:44.026Z,11.60
2018-09-15T01:04:14.115Z,11.70
2018-09-15T01:06:44.207Z,11.70
2018-09-15T01:09:14.266Z,11.80
2018-09-15T01:11:44.362Z,11.80
2018-09-15T01:14:14.560Z,11.90
2018-09-15T01:16:44.548Z,11.90
2018-09-15T01:19:14.589Z,11.90
2018-09-15T01:21:44.701Z,12.00
2018-09-15T01:24:14.771Z,11.90
2018-09-15T01:26:44.836Z,12.00
2018-09-15T01:29:14.903Z,12.00
2018-09-15T01:31:45.017Z,12.00
2018-09-15T01:34:15.104Z,12.00
2018-09-15T01:36:45.228Z,12.00
2018-09-15T01:39:15.363Z,11.90
2018-09-15T01:41:45.573Z,11.90
2018-09-15T01:44:15.662Z,11.80
2018-09-15T01:46:45.760Z,11.80
2018-09-15T01:49:15.871Z,11.70
2018-09-15T01:51:46.027Z,11.60
2018-09-15T01:54:16.053Z,11.60
2018-09-15T01:56:46.134Z,11.50
2018-09-15T01:59:16.188Z,11.40
2018-09-15T02:01:46.267Z,11.40
2018-09-15T02:04:16.382Z,11.40
2018-09-15T02:06:46.486Z,11.30
2018-09-15T02:09:16.573Z,11.30
2018-09-15T02:11:46.711Z,11.30
2018-09-15T02:14:16.823Z,11.40
2018-09-15T02:16:46.964Z,11.40
2018-09-15T02:19:17.075Z,11.40
2018-09-15T02:21:47.215Z,11.40
2018-09-15T02:24:17.264Z,11.30
2018-09-15T02:26:47.422Z,11.30
2018-09-15T02:29:17.598Z,11.20
2018-09-15T02:31:47.693Z,11.10
2018-09-15T02:34:17.872Z,11.00
2018-09-15T02:36:48.001Z,11.00
2018-09-15T02:39:18.157Z,10.90
2018-09-15T02:41:48.268Z,10.90
2018-09-15T02:44:18.310Z,10.80
2018-09-15T02:46:48.445Z,10.80
2018-09-15T02:49:18.506Z,10.70
2018-09-15T02:51:48.681Z,10.70
2018-09-15T02:54:18.731Z,10.70
2018-09-15T02:56:48.856Z,10.60
2018-09-15T02:59:19.040Z,10.60
2018-09-15T03:01:49.124Z,10.50
2018-09-15T03:04:19.172Z,10.50
2018-09-15T03:06:49.289Z,10.50
2018-09-15T03:09:20.200Z,10.50
2018-09-15T03:11:50.305Z,10.50
2018-09-15T03:14:20.393Z,10.50
2018-09-15T03:16:50.586Z,10.50
2018-09-15T03:19:20.796Z,10.50
2018-09-15T03:21:50.964Z,10.50
2018-09-15T03:24:21.065Z,10.50
2018-09-15T03:26:51.271Z,10.50
2018-09-15T03:29:21.360Z,10.50
2018-09-15T03:31:51.854Z,10.50
2018-09-15T03:34:21.932Z,10.50
2018-09-15T03:36:52.063Z,10.60
2018-09-15T03:39:22.137Z,10.60
2018-09-15T03:41:52.376Z,10.60
2018-09-15T03:44:22.447Z,10.60
2018-09-15T03:46:52.496Z,10.60
2018-09-15T03:49:22.519Z,10.50
2018-09-15T03:51:52.643Z,10.50
2018-09-15T03:54:23.203Z,10.50
2018-09-15T03:56:53.270Z,10.50
2018-09-15T03:59:23.391Z,10.50
2018-09-15T04:01:53.484Z,10.50
2018-09-15T04:04:23.527Z,10.40
2018-09-15T04:06:53.662Z,10.50
2018-09-15T04:09:23.722Z,10.50
2018-09-15T04:11:53.814Z,10.50
2018-09-15T04:14:23.911Z,10.50
2018-09-15T04:16:54.027Z,10.40
2018-09-15T04:19:24.146Z,10.40
2018-09-15T04:21:54.313Z,10.30
2018-09-15T04:24:24.443Z,10.30
2018-09-15T04:26:54.572Z,10.30
2018-09-15T04:29:24.680Z,10.30
2018-09-15T04:31:54.745Z,10.30
2018-09-15T04:34:24.884Z,10.30
2018-09-15T04:36:54.991Z,10.20
2018-09-15T04:39:25.088Z,10.20
2018-09-15T04:41:55.245Z,10.20
2018-09-15T04:44:25.282Z,10.20
2018-09-15T04:46:55.326Z,10.20
2018-09-15T04:49:25.458Z,10.20
2018-09-15T04:51:55.599Z,10.10
2018-09-15T04:54:25.705Z,10.20
2018-09-15T04:56:55.774Z,10.10
2018-09-15T04:59:25.855Z,10.10
2018-09-15T05:01:55.910Z,10.10
2018-09-15T05:04:25.961Z,10.10
2018-09-15T05:06:56.058Z,10.10
2018-09-15T05:09:26.112Z,10.20
2018-09-15T05:11:56.219Z,10.20
2018-09-15T05:14:26.391Z,10.20
2018-09-15T05:16:56.490Z,10.30
2018-09-15T05:19:26.564Z,10.30
2018-09-15T05:21:56.655Z,10.40
2018-09-15T05:24:26.797Z,10.40
2018-09-15T05:26:56.854Z,10.50
2018-09-15T05:29:27.126Z,10.50
2018-09-15T05:31:57.270Z,10.50
2018-09-15T05:34:27.328Z,10.50
2018-09-15T05:36:57.476Z,10.50
2018-09-15T05:39:27.620Z,10.60
2018-09-15T05:41:57.801Z,10.60
2018-09-15T05:44:27.942Z,10.60
2018-09-15T05:46:58.083Z,10.60
2018-09-15T05:49:28.256Z,10.70
2018-09-15T05:51:58.343Z,10.80
2018-09-15T05:54:28.462Z,10.90
2018-09-15T05:56:58.556Z,11.00
2018-09-15T05:59:28.678Z,11.10
2018-09-15T06:01:58.928Z,11.20
2018-09-15T06:04:29.028Z,11.30
2018-09-15T06:06:59.125Z,11.40
2018-09-15T06:09:29.189Z,11.50
2018-09-15T06:11:59.327Z,11.70
2018-09-15T06:14:29.395Z,11.80
2018-09-15T06:16:59.507Z,11.90
2018-09-15T06:19:29.570Z,12.00
2018-09-15T06:21:59.644Z,12.20
2018-09-15T06:24:29.746Z,12.30
2018-09-15T06:26:59.942Z,12.30
2018-09-15T06:29:30.024Z,12.50
2018-09-15T06:32:00.182Z,12.60
2018-09-15T06:34:30.276Z,12.70
2018-09-15T06:37:00.413Z,12.90
2018-09-15T06:39:30.568Z,13.20
2018-09-15T06:42:00.722Z,13.80
2018-09-15T06:44:30.823Z,14.60
2018-09-15T06:47:01.025Z,15.20
2018-09-15T06:49:31.165Z,16.00
2018-09-15T06:52:01.287Z,16.50
2018-09-15T06:54:31.363Z,16.80
2018-09-15T06:57:01.515Z,17.40
2018-09-15T06:59:31.588Z,17.80
2018-09-15T07:02:01.677Z,18.00
2018-09-15T07:04:31.772Z,18.30
2018-09-15T07:07:01.912Z,18.90
2018-09-15T07:09:32.062Z,19.10
2018-09-15T07:12:02.181Z,19.60
2018-09-15T07:14:32.268Z,19.80
2018-09-15T07:17:02.356Z,19.80
2018-09-15T07:19:32.438Z,20.00
2018-09-15T07:22:02.510Z,20.00
2018-09-15T07:24:32.551Z,19.60
2018-09-15T07:27:02.739Z,19.50
2018-09-15T07:29:32.823Z,19.50
2018-09-15T07:32:03.039Z,19.10
2018-09-15T07:34:33.134Z,19.10
2018-09-15T07:37:03.252Z,19.30
2018-09-15T07:39:33.449Z,19.80
2018-09-15T07:42:03.530Z,19.80
2018-09-15T07:44:33.619Z,19.70
2018-09-15T07:47:03.729Z,19.60
2018-09-15T07:49:33.838Z,19.40
2018-09-15T07:52:03.970Z,19.10
2018-09-15T07:54:34.103Z,19.10
2018-09-15T07:57:04.321Z,18.70
2018-09-15T07:59:34.479Z,18.60
2018-09-15T08:02:08.563Z,18.90
2018-09-15T08:04:38.670Z,18.80
2018-09-15T08:07:08.769Z,18.80
2018-09-15T08:09:38.782Z,18.60
2018-09-15T08:12:08.897Z,18.40
2018-09-15T08:14:38.940Z,18.10
2018-09-15T08:17:09.176Z,18.10
2018-09-15T08:19:39.341Z,17.80
2018-09-15T08:22:09.449Z,17.30
2018-09-15T08:24:39.565Z,16.90
2018-09-15T08:27:09.750Z,16.70
2018-09-15T08:29:39.823Z,16.50
2018-09-15T08:32:09.968Z,16.40
2018-09-15T08:34:39.969Z,16.50
2018-09-15T08:37:10.090Z,16.60
2018-09-15T08:39:40.190Z,16.80
2018-09-15T08:42:10.311Z,17.00
2018-09-15T08:44:40.384Z,17.10
2018-09-15T08:47:10.582Z,17.40
2018-09-15T08:49:40.693Z,17.60
2018-09-15T08:52:10.881Z,17.60
2018-09-15T08:54:41.046Z,17.70
2018-09-15T08:57:11.232Z,17.80
2018-09-15T08:59:47.140Z,18.00
2018-09-15T09:02:17.318Z,18.30
2018-09-15T09:04:47.403Z,18.80
2018-09-15T09:07:17.625Z,19.10
2018-09-15T09:09:47.698Z,19.00
2018-09-15T09:12:17.762Z,18.80
2018-09-15T09:14:47.899Z,18.70
2018-09-15T09:17:18.039Z,18.70
2018-09-15T09:19:49.488Z,18.60
2018-09-15T09:22:19.543Z,18.40
2018-09-15T09:24:50.364Z,18.30
2018-09-15T09:27:20.501Z,18.20
2018-09-15T09:29:51.160Z,18.30
2018-09-15T09:32:21.353Z,18.50
2018-09-15T09:34:52.426Z,18.60
2018-09-15T09:37:22.606Z,18.70
2018-09-15T09:39:52.712Z,18.60
2018-09-15T09:42:23.609Z,18.90
2018-09-15T09:44:53.682Z,19.20
2018-09-15T09:47:25.787Z,19.60
2018-09-15T09:49:56.060Z,19.90
2018-09-15T09:52:26.319Z,20.30
2018-09-15T09:54:56.480Z,20.40
2018-09-15T09:57:26.643Z,20.40
2018-09-15T09:59:56.818Z,20.10
2018-09-15T10:02:28.160Z,19.40
2018-09-15T10:04:58.438Z,19.30
2018-09-15T10:07:28.590Z,19.50
2018-09-15T10:09:58.672Z,19.60
2018-09-15T10:12:28.805Z,19.70
2018-09-15T10:14:58.951Z,19.60
2018-09-15T10:17:29.065Z,19.20
2018-09-15T10:19:59.138Z,18.90
2018-09-15T10:22:29.281Z,18.70
2018-09-15T10:24:59.928Z,18.70
2018-09-15T10:27:30.149Z,18.40
2018-09-15T10:30:04.661Z,17.90
2018-09-15T10:32:34.770Z,18.00
2018-09-15T10:35:04.845Z,18.30
2018-09-15T10:37:35.067Z,18.70
2018-09-15T10:40:05.324Z,19.10
2018-09-15T10:42:35.698Z,19.40
2018-09-15T10:45:12.338Z,19.40
2018-09-15T10:47:43.160Z,19.70
2018-09-15T10:50:14.012Z,19.90
2018-09-15T10:52:44.156Z,20.00
2018-09-15T10:55:14.209Z,20.10
2018-09-15T10:57:44.305Z,20.10
2018-09-15T11:00:14.913Z,20.20
2018-09-15T11:02:44.980Z,20.10
2018-09-15T11:05:15.012Z,20.20
2018-09-15T11:07:45.177Z,19.80
2018-09-15T11:10:15.328Z,19.70
2018-09-15T11:12:45.508Z,19.50
2018-09-15T11:15:15.514Z,19.20
2018-09-15T11:17:46.351Z,19.10
2018-09-15T11:20:16.463Z,19.20
2018-09-15T11:22:47.270Z,19.50
2018-09-15T11:25:17.376Z,19.90
2018-09-15T11:27:49.643Z,20.10
2018-09-15T11:30:20.100Z,19.80
2018-09-15T11:32:50.202Z,19.60
2018-09-15T11:35:20.288Z,19.30
2018-09-15T11:37:50.404Z,18.80
2018-09-15T11:40:21.321Z,18.70
2018-09-15T11:42:51.610Z,18.60
2018-09-15T11:45:21.743Z,18.60
2018-09-15T11:47:51.901Z,18.80
2018-09-15T11:50:21.964Z,18.70
2018-09-15T11:52:52.103Z,18.60
2018-09-15T11:55:22.289Z,18.60
2018-09-15T11:57:52.724Z,18.70
2018-09-15T12:00:26.694Z,18.70
2018-09-15T12:02:57.272Z,18.80
2018-09-15T12:05:27.380Z,18.90
2018-09-15T12:07:57.578Z,18.90
2018-09-15T12:10:39.173Z,19.10
2018-09-15T12:13:09.702Z,19.10
2018-09-15T12:15:42.728Z,19.00
2018-09-15T12:18:12.871Z,19.00
2018-09-15T12:20:43.302Z,18.90
2018-09-15T12:23:13.685Z,18.70
2018-09-15T12:25:43.895Z,18.50
2018-09-15T12:28:14.014Z,18.30
2018-09-15T12:30:44.132Z,18.10
2018-09-15T12:33:14.201Z,18.00
2018-09-15T12:35:44.509Z,17.90
2018-09-15T12:38:14.692Z,17.70
2018-09-15T12:40:44.825Z,17.70
2018-09-15T12:43:14.922Z,17.70
2018-09-15T12:45:44.985Z,17.80
2018-09-15T12:48:15.052Z,17.90
2018-09-15T12:50:45.285Z,18.00
2018-09-15T12:53:15.357Z,18.10
2018-09-15T12:55:45.409Z,18.30
2018-09-15T12:58:15.666Z,18.50
2018-09-15T13:00:45.893Z,18.80
2018-09-15T13:03:16.055Z,19.00
2018-09-15T13:05:46.209Z,19.30
2018-09-15T13:08:17.026Z,19.50
2018-09-15T13:10:47.130Z,19.70
2018-09-15T13:13:17.212Z,19.70
2018-09-15T13:15:47.292Z,19.90
2018-09-15T13:18:17.380Z,20.00
2018-09-15T13:20:47.484Z,20.40
2018-09-15T13:23:17.591Z,20.60
2018-09-15T13:25:47.792Z,20.70
2018-09-15T13:28:17.905Z,21.00
2018-09-15T13:30:48.126Z,21.30
2018-09-15T13:33:18.223Z,21.40
2018-09-15T13:35:48.318Z,21.00
2018-09-15T13:38:18.562Z,20.70
2018-09-15T13:40:48.785Z,20.30
2018-09-15T13:43:18.980Z,20.30
2018-09-15T13:45:49.080Z,20.00
2018-09-15T13:48:19.230Z,19.90
2018-09-15T13:50:49.319Z,19.70
2018-09-15T13:53:19.544Z,19.70
2018-09-15T13:55:49.623Z,19.80
2018-09-15T13:58:19.754Z,19.90
2018-09-15T14:00:49.823Z,19.90
2018-09-15T14:03:19.890Z,20.00
2018-09-15T14:05:49.963Z,20.20
2018-09-15T14:08:20.063Z,20.30
2018-09-15T14:10:50.153Z,20.30
2018-09-15T14:13:20.358Z,20.40
2018-09-15T14:15:50.524Z,20.40
2018-09-15T14:18:21.474Z,20.40
2018-09-15T14:20:51.578Z,20.20
2018-09-15T14:23:21.762Z,20.00
2018-09-15T14:25:51.830Z,20.00
2018-09-15T14:28:21.969Z,19.80
2018-09-15T14:30:52.041Z,19.70
2018-09-15T14:33:22.149Z,19.50
2018-09-15T14:35:52.246Z,19.50
2018-09-15T14:38:22.384Z,19.50
2018-09-15T14:40:52.443Z,19.70
2018-09-15T14:43:22.552Z,19.80
2018-09-15T14:45:52.591Z,19.90
2018-09-15T14:48:22.853Z,19.70
2018-09-15T14:50:52.896Z,19.50
2018-09-15T14:53:23.012Z,19.50
2018-09-15T14:55:53.209Z,19.50
2018-09-15T14:58:23.473Z,19.40
2018-09-15T15:00:53.592Z,19.30
2018-09-15T15:03:23.770Z,19.10
2018-09-15T15:05:53.840Z,19.10
2018-09-15T15:08:24.100Z,19.20
2018-09-15T15:10:54.154Z,19.20
2018-09-15T15:13:24.470Z,19.30
2018-09-15T15:15:54.527Z,19.50
2018-09-15T15:18:26.046Z,19.70
2018-09-15T15:20:56.193Z,19.70
2018-09-15T15:23:26.356Z,19.70
2018-09-15T15:25:56.459Z,19.60
2018-09-15T15:28:26.587Z,19.60
2018-09-15T15:30:56.689Z,19.60
2018-09-15T15:33:26.838Z,19.60
2018-09-15T15:35:57.007Z,19.60
2018-09-15T15:38:27.135Z,19.40
2018-09-15T15:40:57.200Z,19.30
2018-09-15T15:43:27.357Z,19.10
2018-09-15T15:45:57.408Z,19.00
2018-09-15T15:48:27.565Z,18.90
2018-09-15T15:50:57.758Z,18.70
2018-09-15T15:53:27.896Z,18.60
2018-09-15T15:55:58.641Z,18.50
2018-09-15T15:58:28.796Z,18.50
2018-09-15T16:00:58.891Z,18.50
2018-09-15T16:03:28.970Z,18.50
2018-09-15T16:05:59.151Z,18.50
2018-09-15T16:08:29.285Z,18.60
2018-09-15T16:10:59.346Z,18.80
2018-09-15T16:13:32.454Z,19.30
2018-09-15T16:16:02.537Z,19.80
2018-09-15T16:18:32.686Z,20.10
2018-09-15T16:21:02.860Z,20.10
2018-09-15T16:23:32.961Z,20.10
2018-09-15T16:26:03.025Z,19.80
2018-09-15T16:28:33.129Z,19.50
2018-09-15T16:31:03.191Z,19.30
2018-09-15T16:33:33.295Z,19.10
2018-09-15T16:36:03.383Z,18.90
2018-09-15T16:38:33.598Z,18.80
2018-09-15T16:41:03.744Z,18.60
2018-09-15T16:43:33.818Z,18.60
2018-09-15T16:46:04.045Z,18.40
2018-09-15T16:48:34.274Z,18.30
2018-09-15T16:51:04.425Z,18.20
2018-09-15T16:53:34.581Z,18.20
2018-09-15T16:56:04.709Z,18.20
2018-09-15T16:58:34.841Z,18.20
2018-09-15T17:01:05.048Z,18.10
2018-09-15T17:03:35.212Z,17.90
2018-09-15T17:06:05.525Z,17.70
2018-09-15T17:08:35.644Z,17.60
2018-09-15T17:11:05.855Z,17.40
2018-09-15T17:13:35.900Z,17.30
2018-09-15T17:16:05.972Z,17.10
2018-09-15T17:18:36.162Z,17.00
2018-09-15T17:21:06.248Z,16.80
2018-09-15T17:23:36.436Z,16.70
2018-09-15T17:26:06.569Z,16.50
2018-09-15T17:28:36.675Z,16.40
2018-09-15T17:31:06.827Z,16.30
2018-09-15T17:33:37.017Z,16.10
2018-09-15T17:36:07.135Z,16.00
2018-09-15T17:38:37.300Z,15.80
2018-09-15T17:41:07.397Z,15.70
2018-09-15T17:43:37.516Z,15.60
2018-09-15T17:46:07.749Z,15.40
2018-09-15T17:48:37.858Z,15.30
2018-09-15T17:51:08.018Z,15.20
2018-09-15T17:53:38.167Z,15.10
2018-09-15T17:56:08.290Z,15.00
2018-09-15T17:58:38.422Z,14.80
2018-09-15T18:01:08.553Z,14.80
2018-09-15T18:03:38.697Z,14.70
2018-09-15T18:06:08.815Z,14.70
2018-09-15T18:08:38.971Z,14.70
2018-09-15T18:11:09.176Z,14.70
2018-09-15T18:13:39.287Z,14.70
2018-09-15T18:16:09.389Z,14.60
2018-09-15T18:18:39.556Z,14.60
2018-09-15T18:21:09.648Z,14.50
2018-09-15T18:23:39.731Z,14.50
2018-09-15T18:26:09.870Z,14.40
2018-09-15T18:28:39.990Z,14.30
2018-09-15T18:31:10.090Z,14.20
2018-09-15T18:33:40.241Z,14.20
2018-09-15T18:36:10.403Z,14.10
2018-09-15T18:38:40.470Z,14.00
2018-09-15T18:41:10.619Z,13.90
2018-09-15T18:43:40.704Z,13.90
2018-09-15T18:46:10.805Z,13.80
2018-09-15T18:48:40.872Z,13.70
2018-09-15T18:51:10.926Z,13.60
2018-09-15T18:53:41.125Z,13.50
2018-09-15T18:56:11.219Z,13.40
2018-09-15T18:58:41.334Z,13.30
2018-09-15T19:01:11.413Z,13.20
2018-09-15T19:03:41.563Z,13.20
2018-09-15T19:06:11.630Z,13.10
2018-09-15T19:08:41.903Z,13.00
2018-09-15T19:11:12.024Z,13.00
2018-09-15T19:13:42.154Z,13.00
2018-09-15T19:16:12.316Z,12.90
2018-09-15T19:18:42.497Z,12.80
2018-09-15T19:21:12.761Z,12.80
2018-09-15T19:23:42.915Z,12.80
2018-09-15T19:26:13.276Z,12.80
2018-09-15T19:28:43.390Z,12.70
2018-09-15T19:31:13.412Z,12.70
2018-09-15T19:33:43.486Z,12.70
2018-09-15T19:36:13.610Z,12.70
2018-09-15T19:38:43.813Z,12.70
2018-09-15T19:41:13.923Z,12.70
2018-09-15T19:43:44.044Z,12.70
2018-09-15T19:46:14.138Z,12.70
2018-09-15T19:48:44.196Z,12.70
2018-09-15T19:51:14.288Z,12.70
2018-09-15T19:53:44.360Z,12.70
2018-09-15T19:56:14.415Z,12.70
2018-09-15T19:58:44.511Z,12.70
2018-09-15T20:01:14.572Z,12.70
2018-09-15T20:03:44.646Z,12.60
2018-09-15T20:06:14.736Z,12.60
2018-09-15T20:08:44.851Z,12.60
2018-09-15T20:11:14.978Z,12.60
2018-09-15T20:13:45.204Z,12.60
2018-09-15T20:16:13.243Z,12.60
2018-09-15T20:18:41.270Z,12.60
2018-09-15T20:21:09.356Z,12.50
2018-09-15T20:23:42.304Z,12.60
2018-09-15T20:26:12.395Z,12.60
2018-09-15T20:28:42.493Z,12.60
2018-09-15T20:31:12.763Z,12.60
2018-09-15T20:33:42.933Z,12.60
2018-09-15T20:36:13.075Z,12.60
2018-09-15T20:38:43.222Z,12.60
2018-09-15T20:41:13.351Z,12.60
2018-09-15T20:43:43.648Z,12.50
2018-09-15T20:46:13.784Z,12.50
2018-09-15T20:48:43.877Z,12.50
2018-09-15T20:51:14.007Z,12.50
2018-09-15T20:53:44.096Z,12.40
2018-09-15T20:56:14.284Z,12.40
2018-09-15T20:58:44.412Z,12.30
2018-09-15T21:01:14.531Z,12.30
2018-09-15T21:03:44.729Z,12.20
2018-09-15T21:06:14.868Z,12.20
2018-09-15T21:08:44.984Z,12.10
2018-09-15T21:11:15.166Z,12.10
2018-09-15T21:13:45.244Z,12.10
2018-09-15T21:16:15.383Z,12.00
2018-09-15T21:18:46.021Z,12.00
2018-09-15T21:21:16.082Z,12.00
2018-09-15T21:23:46.120Z,11.90
2018-09-15T21:26:16.226Z,11.80
2018-09-15T21:28:46.295Z,11.80
2018-09-15T21:31:16.404Z,11.70
2018-09-15T21:33:46.439Z,11.70
2018-09-15T21:36:16.556Z,11.60
2018-09-15T21:38:46.728Z,11.60
2018-09-15T21:41:17.003Z,11.60
2018-09-15T21:43:47.153Z,11.60
2018-09-15T21:46:17.304Z,11.60
2018-09-15T21:48:47.440Z,11.60
2018-09-15T21:51:17.768Z,11.50
2018-09-15T21:53:47.954Z,11.40
2018-09-15T21:56:18.031Z,11.40
2018-09-15T21:58:48.209Z,11.40
2018-09-15T22:01:18.338Z,11.30
2018-09-15T22:03:53.475Z,11.30
2018-09-15T22:06:23.562Z,11.20
2018-09-15T22:08:53.635Z,11.20
2018-09-15T22:11:23.708Z,11.20
2018-09-15T22:13:53.764Z,11.20
2018-09-15T22:16:23.911Z,11.20
2018-09-15T22:18:53.982Z,11.30
2018-09-15T22:21:24.065Z,11.30
2018-09-15T22:23:54.255Z,11.30
2018-09-15T22:26:24.441Z,11.30
2018-09-15T22:28:54.542Z,11.30
2018-09-15T22:31:24.674Z,11.20
2018-09-15T22:33:54.889Z,11.20
2018-09-15T22:36:25.935Z,11.10
2018-09-15T22:38:56.011Z,11.10
2018-09-15T22:41:26.141Z,11.10
2018-09-15T22:43:56.249Z,11.00
2018-09-15T22:46:26.372Z,11.00
2018-09-15T22:48:56.434Z,11.00
2018-09-15T22:51:26.521Z,11.10
2018-09-15T22:53:56.647Z,11.10
2018-09-15T22:56:26.805Z,11.10
2018-09-15T22:58:56.968Z,11.10
2018-09-15T23:01:27.002Z,11.00
2018-09-15T23:04:02.158Z,10.90
2018-09-15T23:06:32.593Z,10.90
2018-09-15T23:09:02.736Z,10.90
2018-09-15T23:11:32.804Z,10.90
2018-09-15T23:14:02.845Z,10.90
2018-09-15T23:16:32.960Z,10.90
2018-09-15T23:19:03.116Z,10.80
2018-09-15T23:21:33.354Z,10.80
2018-09-15T23:24:03.520Z,10.70
2018-09-15T23:26:33.646Z,10.70
2018-09-15T23:29:03.732Z,10.70
2018-09-15T23:31:33.891Z,10.70
2018-09-15T23:34:04.048Z,10.70
2018-09-15T23:36:34.145Z,10.60
2018-09-15T23:39:05.086Z,10.60
2018-09-15T23:41:35.201Z,10.60
2018-09-15T23:44:05.342Z,10.60
2018-09-15T23:46:35.464Z,10.60
2018-09-15T23:49:05.537Z,10.60
2018-09-15T23:51:35.637Z,10.50
2018-09-15T23:54:05.694Z,10.50
2018-09-15T23:56:35.768Z,10.50
2018-09-15T23:59:06.143Z,10.50
